RYS3245 LGRP-EPKT
Flight info
| Callsign | RYS3245 |
|---|---|
| Flight time | N/A |
| Altitude | 36000 |
| Route | VANES UM601 ADESO UN133 PEREN UL863 EVIVI L863 OKANA DCT ESIRI DCT PARAK DCT LITKU DCT REDSI/N0470F370 DCT MEBAN |
| Aircraft | B738/M-SDE2E3FGHIRWXY/LB1 |
Departure
| Time | 2026-04-29 16:40 |
|---|---|
| Airport | Rhodes International Airport "Diagoras" (LGRP) |
Arrival
| Time | N/A |
|---|---|
| Airport | Katowice Wojciech Korfanty International Airport (EPKT) |
| Time | Latitude | Longitude | Altitude | Speed | Heading |
|---|---|---|---|---|---|
| 2026-04-29 16:05 | 36.40394 | 28.09231 | 27 ft | 0 kts | 160° |
| 2026-04-29 16:28 | 36.40396 | 28.09230 | 27 ft | 2 kts | 160° |
| 2026-04-29 16:28 | 36.40420 | 28.09219 | 27 ft | 4 kts | 160° |
| 2026-04-29 16:28 | 36.40442 | 28.09208 | 27 ft | 4 kts | 137° |
| 2026-04-29 16:28 | 36.40451 | 28.09183 | 27 ft | 4 kts | 77° |
| 2026-04-29 16:29 | 36.40446 | 28.09162 | 27 ft | 1 kts | 70° |
| 2026-04-29 16:29 | 36.40445 | 28.09159 | 27 ft | 1 kts | 70° |
| 2026-04-29 16:35 | 36.40451 | 28.09179 | 27 ft | 8 kts | 70° |
| 2026-04-29 16:35 | 36.40486 | 28.09300 | 27 ft | 18 kts | 68° |
| 2026-04-29 16:36 | 36.40505 | 28.09335 | 27 ft | 18 kts | 49° |
| 2026-04-29 16:36 | 36.40574 | 28.09408 | 27 ft | 18 kts | 45° |
| 2026-04-29 16:36 | 36.40626 | 28.09543 | 27 ft | 17 kts | 70° |
| 2026-04-29 16:37 | 36.40666 | 28.09680 | 27 ft | 17 kts | 70° |
| 2026-04-29 16:37 | 36.40704 | 28.09811 | 27 ft | 16 kts | 70° |
| 2026-04-29 16:37 | 36.40741 | 28.09938 | 27 ft | 15 kts | 70° |
| 2026-04-29 16:37 | 36.40765 | 28.10019 | 27 ft | 15 kts | 70° |
| 2026-04-29 16:38 | 36.40812 | 28.10179 | 27 ft | 18 kts | 70° |
| 2026-04-29 16:38 | 36.40875 | 28.10391 | 27 ft | 23 kts | 65° |
| 2026-04-29 16:38 | 36.40930 | 28.10431 | 27 ft | 0 kts | 352° |
| 2026-04-29 16:39 | 36.40957 | 28.10419 | 27 ft | 9 kts | 329° |
| 2026-04-29 16:39 | 36.41009 | 28.10313 | 27 ft | 19 kts | 287° |
| 2026-04-29 16:39 | 36.40999 | 28.10186 | 26 ft | 0 kts | 248° |
| 2026-04-29 16:40 | 36.40944 | 28.09998 | 25 ft | 64 kts | 250° |
| 2026-04-29 16:40 | 36.40694 | 28.09148 | 30 ft | 143 kts | 250° |
| 2026-04-29 16:40 | 36.40277 | 28.07764 | 308 ft | 189 kts | 248° |
| 2026-04-29 16:40 | 36.39838 | 28.06206 | 1273 ft | 195 kts | 264° |
| 2026-04-29 16:41 | 36.39740 | 28.04509 | 2286 ft | 196 kts | 267° |
| 2026-04-29 16:41 | 36.39626 | 28.02784 | 2997 ft | 207 kts | 266° |
| 2026-04-29 16:41 | 36.39471 | 28.01029 | 3674 ft | 206 kts | 265° |
| 2026-04-29 16:41 | 36.39386 | 27.99266 | 4424 ft | 205 kts | 271° |
| 2026-04-29 16:42 | 36.39445 | 27.97497 | 5100 ft | 206 kts | 274° |
| 2026-04-29 16:42 | 36.39465 | 27.95699 | 5655 ft | 213 kts | 266° |
| 2026-04-29 16:42 | 36.39317 | 27.93767 | 5845 ft | 236 kts | 265° |
| 2026-04-29 16:42 | 36.39173 | 27.91652 | 5992 ft | 252 kts | 266° |
| 2026-04-29 16:43 | 36.39068 | 27.89433 | 5997 ft | 257 kts | 270° |
| 2026-04-29 16:43 | 36.39198 | 27.87255 | 6007 ft | 256 kts | 277° |
| 2026-04-29 16:43 | 36.39436 | 27.85062 | 6014 ft | 257 kts | 278° |
| 2026-04-29 16:43 | 36.39693 | 27.82838 | 6328 ft | 268 kts | 278° |
| 2026-04-29 16:44 | 36.39960 | 27.80486 | 6841 ft | 280 kts | 278° |
| 2026-04-29 16:44 | 36.40224 | 27.78087 | 7648 ft | 280 kts | 278° |
| 2026-04-29 16:44 | 36.40479 | 27.75702 | 8568 ft | 278 kts | 278° |
| 2026-04-29 16:44 | 36.40731 | 27.73300 | 9342 ft | 283 kts | 278° |
| 2026-04-29 16:45 | 36.40983 | 27.70862 | 10090 ft | 286 kts | 278° |
| 2026-04-29 16:45 | 36.41239 | 27.68352 | 10499 ft | 304 kts | 277° |
| 2026-04-29 16:45 | 36.41513 | 27.65648 | 10669 ft | 327 kts | 277° |
| 2026-04-29 16:45 | 36.41804 | 27.62749 | 10850 ft | 349 kts | 277° |
| 2026-04-29 16:46 | 36.42110 | 27.59672 | 11010 ft | 369 kts | 277° |
| 2026-04-29 16:46 | 36.42431 | 27.56437 | 11254 ft | 384 kts | 277° |
| 2026-04-29 16:46 | 36.42758 | 27.53125 | 11788 ft | 389 kts | 277° |
| 2026-04-29 16:46 | 36.43082 | 27.49824 | 12451 ft | 390 kts | 277° |
| 2026-04-29 16:47 | 36.43410 | 27.46473 | 13131 ft | 392 kts | 277° |
| 2026-04-29 16:47 | 36.43738 | 27.43105 | 13757 ft | 394 kts | 277° |
| 2026-04-29 16:47 | 36.44068 | 27.39720 | 14284 ft | 397 kts | 277° |
| 2026-04-29 16:47 | 36.44401 | 27.36297 | 14806 ft | 401 kts | 277° |
| 2026-04-29 16:48 | 36.44735 | 27.32850 | 15365 ft | 403 kts | 277° |
| 2026-04-29 16:48 | 36.45071 | 27.29379 | 15891 ft | 407 kts | 277° |
| 2026-04-29 16:48 | 36.45407 | 27.25881 | 16406 ft | 409 kts | 277° |
| 2026-04-29 16:48 | 36.45745 | 27.22359 | 16917 ft | 412 kts | 277° |
| 2026-04-29 16:49 | 36.46084 | 27.18811 | 17416 ft | 415 kts | 277° |
| 2026-04-29 16:49 | 36.46424 | 27.15242 | 17955 ft | 416 kts | 277° |
| 2026-04-29 16:49 | 36.46764 | 27.11663 | 18411 ft | 420 kts | 277° |
| 2026-04-29 16:49 | 36.47108 | 27.08040 | 18795 ft | 423 kts | 277° |
| 2026-04-29 16:50 | 36.47450 | 27.04415 | 19273 ft | 424 kts | 277° |
| 2026-04-29 16:50 | 36.47794 | 27.00766 | 19694 ft | 426 kts | 277° |
| 2026-04-29 16:50 | 36.48139 | 26.97092 | 20082 ft | 430 kts | 277° |
| 2026-04-29 16:50 | 36.48628 | 26.93421 | 20503 ft | 432 kts | 287° |
| 2026-04-29 16:51 | 36.49882 | 26.90040 | 20894 ft | 435 kts | 303° |
| 2026-04-29 16:51 | 36.51809 | 26.87131 | 21272 ft | 439 kts | 316° |
| 2026-04-29 16:51 | 36.54223 | 26.84788 | 21675 ft | 441 kts | 323° |
| 2026-04-29 16:51 | 36.56721 | 26.82554 | 22062 ft | 443 kts | 323° |
| 2026-04-29 16:52 | 36.59233 | 26.80320 | 22451 ft | 445 kts | 323° |
| 2026-04-29 16:52 | 36.61749 | 26.78070 | 22869 ft | 446 kts | 323° |
| 2026-04-29 16:52 | 36.64276 | 26.75789 | 23092 ft | 451 kts | 323° |
| 2026-04-29 16:52 | 36.66808 | 26.73484 | 23618 ft | 449 kts | 322° |
| 2026-04-29 16:53 | 36.69327 | 26.71177 | 23937 ft | 451 kts | 322° |
| 2026-04-29 16:53 | 36.71861 | 26.68848 | 24135 ft | 455 kts | 322° |
| 2026-04-29 16:53 | 36.74409 | 26.66499 | 24428 ft | 456 kts | 322° |
| 2026-04-29 16:53 | 36.76970 | 26.64135 | 24625 ft | 460 kts | 322° |
| 2026-04-29 16:54 | 36.79539 | 26.61763 | 25019 ft | 458 kts | 322° |
| 2026-04-29 16:54 | 36.82073 | 26.59422 | 25257 ft | 461 kts | 322° |
| 2026-04-29 16:54 | 36.84662 | 26.57027 | 25441 ft | 465 kts | 322° |
| 2026-04-29 16:54 | 36.87298 | 26.54588 | 25654 ft | 467 kts | 322° |
| 2026-04-29 16:55 | 36.89913 | 26.52166 | 25957 ft | 467 kts | 322° |
| 2026-04-29 16:55 | 36.92506 | 26.49763 | 26515 ft | 461 kts | 322° |
| 2026-04-29 16:55 | 36.95075 | 26.47380 | 26953 ft | 459 kts | 322° |
| 2026-04-29 16:55 | 36.97649 | 26.44991 | 27174 ft | 462 kts | 322° |
| 2026-04-29 16:56 | 37.00233 | 26.42589 | 27482 ft | 462 kts | 322° |
| 2026-04-29 16:56 | 37.02771 | 26.40228 | 27922 ft | 459 kts | 322° |
| 2026-04-29 16:56 | 37.05329 | 26.37847 | 28341 ft | 458 kts | 322° |
| 2026-04-29 16:56 | 37.07919 | 26.35434 | 28589 ft | 460 kts | 322° |
| 2026-04-29 16:57 | 37.10462 | 26.33062 | 28728 ft | 464 kts | 322° |
| 2026-04-29 16:57 | 37.13050 | 26.30647 | 28980 ft | 464 kts | 322° |
| 2026-04-29 16:57 | 37.15637 | 26.28230 | 29233 ft | 464 kts | 322° |
| 2026-04-29 16:57 | 37.18229 | 26.25807 | 29465 ft | 465 kts | 322° |
| 2026-04-29 16:58 | 37.20810 | 26.23391 | 29880 ft | 461 kts | 322° |
| 2026-04-29 16:58 | 37.23381 | 26.20983 | 30147 ft | 461 kts | 322° |
| 2026-04-29 16:58 | 37.25949 | 26.18576 | 30422 ft | 460 kts | 322° |
| 2026-04-29 16:58 | 37.28506 | 26.16177 | 30687 ft | 458 kts | 322° |
| 2026-04-29 16:59 | 37.31062 | 26.13777 | 30903 ft | 459 kts | 322° |
| 2026-04-29 16:59 | 37.33613 | 26.11379 | 31151 ft | 458 kts | 322° |
| 2026-04-29 16:59 | 37.36158 | 26.08985 | 31419 ft | 456 kts | 322° |
| 2026-04-29 16:59 | 37.38696 | 26.06596 | 31653 ft | 456 kts | 322° |
| 2026-04-29 17:00 | 37.41235 | 26.04203 | 31876 ft | 455 kts | 322° |
| 2026-04-29 17:00 | 37.43767 | 26.01815 | 32124 ft | 454 kts | 322° |
| 2026-04-29 17:00 | 37.46290 | 25.99433 | 32403 ft | 452 kts | 322° |
| 2026-04-29 17:00 | 37.48804 | 25.97057 | 32652 ft | 451 kts | 322° |
| 2026-04-29 17:01 | 37.51307 | 25.94690 | 32915 ft | 450 kts | 322° |
| 2026-04-29 17:01 | 37.53803 | 25.92328 | 33217 ft | 448 kts | 322° |